sensor_id;sensor_type;location;lat;lon;timestamp;pressure;altitude;pressure_sealevel;temperature;humidity
59877;BME280;45749;51.140;17.184;2023-04-28T00:01:13;100584.06;;;7.87;66.01
59877;BME280;45749;51.140;17.184;2023-04-28T00:03:38;100584.88;;;7.87;66.30
59877;BME280;45749;51.140;17.184;2023-04-28T00:06:04;100584.88;;;7.87;66.47
59877;BME280;45749;51.140;17.184;2023-04-28T00:08:30;100581.66;;;7.82;66.69
59877;BME280;45749;51.140;17.184;2023-04-28T00:10:55;100585.41;;;7.78;66.79
59877;BME280;45749;51.140;17.184;2023-04-28T00:13:21;100584.75;;;7.74;66.89
59877;BME280;45749;51.140;17.184;2023-04-28T00:15:46;100585.69;;;7.73;67.36
59877;BME280;45749;51.140;17.184;2023-04-28T00:18:12;100580.31;;;7.75;67.50
59877;BME280;45749;51.140;17.184;2023-04-28T00:20:37;100578.38;;;7.79;67.53
59877;BME280;45749;51.140;17.184;2023-04-28T00:23:02;100572.94;;;7.82;67.37
59877;BME280;45749;51.140;17.184;2023-04-28T00:25:28;100572.00;;;7.83;67.36
59877;BME280;45749;51.140;17.184;2023-04-28T00:27:53;100568.53;;;7.82;67.53
59877;BME280;45749;51.140;17.184;2023-04-28T00:30:19;100559.47;;;7.72;67.47
59877;BME280;45749;51.140;17.184;2023-04-28T00:32:44;100565.56;;;7.72;67.35
59877;BME280;45749;51.140;17.184;2023-04-28T00:35:10;100575.91;;;7.75;67.41
59877;BME280;45749;51.140;17.184;2023-04-28T00:37:36;100565.69;;;7.71;67.64
59877;BME280;45749;51.140;17.184;2023-04-28T00:40:02;100568.31;;;7.71;67.98
59877;BME280;45749;51.140;17.184;2023-04-28T00:42:27;100571.66;;;7.73;67.80
59877;BME280;45749;51.140;17.184;2023-04-28T00:44:53;100561.34;;;7.70;67.52
59877;BME280;45749;51.140;17.184;2023-04-28T00:47:18;100561.16;;;7.73;67.45
59877;BME280;45749;51.140;17.184;2023-04-28T00:49:44;100560.50;;;7.69;67.44
59877;BME280;45749;51.140;17.184;2023-04-28T00:52:10;100559.94;;;7.64;67.43
59877;BME280;45749;51.140;17.184;2023-04-28T00:54:36;100554.91;;;7.60;67.65
59877;BME280;45749;51.140;17.184;2023-04-28T00:57:02;100557.72;;;7.57;67.70
59877;BME280;45749;51.140;17.184;2023-04-28T00:59:30;100558.75;;;7.54;67.74
59877;BME280;45749;51.140;17.184;2023-04-28T01:01:56;100549.25;;;7.51;67.82
59877;BME280;45749;51.140;17.184;2023-04-28T01:04:23;100542.34;;;7.50;67.76
59877;BME280;45749;51.140;17.184;2023-04-28T01:06:51;100550.94;;;7.52;67.58
59877;BME280;45749;51.140;17.184;2023-04-28T01:09:17;100550.03;;;7.54;67.79
59877;BME280;45749;51.140;17.184;2023-04-28T01:11:43;100540.44;;;7.52;67.87
59877;BME280;45749;51.140;17.184;2023-04-28T01:14:08;100543.34;;;7.48;67.90
59877;BME280;45749;51.140;17.184;2023-04-28T01:16:34;100539.28;;;7.42;67.98
59877;BME280;45749;51.140;17.184;2023-04-28T01:19:00;100535.88;;;7.40;68.35
59877;BME280;45749;51.140;17.184;2023-04-28T01:21:32;100546.47;;;7.39;68.05
59877;BME280;45749;51.140;17.184;2023-04-28T01:23:58;100540.38;;;7.38;68.38
59877;BME280;45749;51.140;17.184;2023-04-28T01:26:24;100523.34;;;7.29;68.31
59877;BME280;45749;51.140;17.184;2023-04-28T01:28:50;100538.00;;;7.34;68.26
59877;BME280;45749;51.140;17.184;2023-04-28T01:31:15;100524.19;;;7.30;68.43
59877;BME280;45749;51.140;17.184;2023-04-28T01:33:41;100519.22;;;7.25;68.50
59877;BME280;45749;51.140;17.184;2023-04-28T01:36:07;100528.44;;;7.33;68.35
59877;BME280;45749;51.140;17.184;2023-04-28T01:38:32;100533.53;;;7.36;68.51
59877;BME280;45749;51.140;17.184;2023-04-28T01:40:58;100528.94;;;7.39;68.59
59877;BME280;45749;51.140;17.184;2023-04-28T01:43:24;100524.63;;;7.38;68.57
59877;BME280;45749;51.140;17.184;2023-04-28T01:45:49;100521.22;;;7.36;68.65
59877;BME280;45749;51.140;17.184;2023-04-28T01:48:15;100517.00;;;7.34;68.67
59877;BME280;45749;51.140;17.184;2023-04-28T01:50:41;100521.34;;;7.35;68.73
59877;BME280;45749;51.140;17.184;2023-04-28T01:53:06;100524.03;;;7.33;68.79
59877;BME280;45749;51.140;17.184;2023-04-28T01:55:32;100516.16;;;7.33;68.84
59877;BME280;45749;51.140;17.184;2023-04-28T01:57:57;100524.63;;;7.38;68.78
59877;BME280;45749;51.140;17.184;2023-04-28T02:00:23;100522.94;;;7.37;68.70
59877;BME280;45749;51.140;17.184;2023-04-28T02:02:48;100518.53;;;7.38;68.77
59877;BME280;45749;51.140;17.184;2023-04-28T02:05:14;100525.47;;;7.39;68.96
59877;BME280;45749;51.140;17.184;2023-04-28T02:07:40;100518.59;;;7.36;68.83
59877;BME280;45749;51.140;17.184;2023-04-28T02:10:06;100523.63;;;7.41;68.72
59877;BME280;45749;51.140;17.184;2023-04-28T02:12:32;100515.75;;;7.41;68.74
59877;BME280;45749;51.140;17.184;2023-04-28T02:14:58;100519.94;;;7.43;68.91
59877;BME280;45749;51.140;17.184;2023-04-28T02:17:23;100514.88;;;7.40;68.65
59877;BME280;45749;51.140;17.184;2023-04-28T02:19:54;100514.97;;;7.39;68.86
59877;BME280;45749;51.140;17.184;2023-04-28T02:22:20;100519.28;;;7.40;68.87
59877;BME280;45749;51.140;17.184;2023-04-28T02:24:45;100512.84;;;7.45;68.87
59877;BME280;45749;51.140;17.184;2023-04-28T02:27:11;100514.47;;;7.48;68.72
59877;BME280;45749;51.140;17.184;2023-04-28T02:29:37;100511.06;;;7.46;68.63
59877;BME280;45749;51.140;17.184;2023-04-28T02:32:03;100517.31;;;7.43;68.90
59877;BME280;45749;51.140;17.184;2023-04-28T02:34:28;100505.31;;;7.39;68.64
59877;BME280;45749;51.140;17.184;2023-04-28T02:36:54;100521.50;;;7.47;68.53
59877;BME280;45749;51.140;17.184;2023-04-28T02:39:19;100521.88;;;7.56;68.47
59877;BME280;45749;51.140;17.184;2023-04-28T02:41:46;100513.44;;;7.50;68.52
59877;BME280;45749;51.140;17.184;2023-04-28T02:44:12;100513.44;;;7.50;68.53
59877;BME280;45749;51.140;17.184;2023-04-28T02:46:37;100517.94;;;7.48;68.63
59877;BME280;45749;51.140;17.184;2023-04-28T02:49:03;100508.38;;;7.47;68.52
59877;BME280;45749;51.140;17.184;2023-04-28T02:51:28;100500.38;;;7.49;68.42
59877;BME280;45749;51.140;17.184;2023-04-28T02:53:53;100503.84;;;7.49;68.41
59877;BME280;45749;51.140;17.184;2023-04-28T02:56:19;100501.06;;;7.52;68.48
59877;BME280;45749;51.140;17.184;2023-04-28T02:58:44;100498.72;;;7.48;68.44
59877;BME280;45749;51.140;17.184;2023-04-28T03:01:10;100494.47;;;7.45;68.62
59877;BME280;45749;51.140;17.184;2023-04-28T03:03:35;100495.47;;;7.43;68.52
59877;BME280;45749;51.140;17.184;2023-04-28T03:06:00;100486.88;;;7.41;68.70
59877;BME280;45749;51.140;17.184;2023-04-28T03:08:26;100487.94;;;7.37;68.81
59877;BME280;45749;51.140;17.184;2023-04-28T03:10:51;100493.13;;;7.38;68.92
59877;BME280;45749;51.140;17.184;2023-04-28T03:13:17;100494.06;;;7.37;68.90
59877;BME280;45749;51.140;17.184;2023-04-28T03:15:42;100494.97;;;7.36;68.93
59877;BME280;45749;51.140;17.184;2023-04-28T03:18:07;100497.59;;;7.36;69.15
59877;BME280;45749;51.140;17.184;2023-04-28T03:20:33;100495.81;;;7.37;68.88
59877;BME280;45749;51.140;17.184;2023-04-28T03:22:58;100482.38;;;7.27;68.89
59877;BME280;45749;51.140;17.184;2023-04-28T03:25:24;100492.47;;;7.35;68.69
59877;BME280;45749;51.140;17.184;2023-04-28T03:27:49;100490.41;;;7.40;68.83
59877;BME280;45749;51.140;17.184;2023-04-28T03:30:14;100495.41;;;7.44;68.59
59877;BME280;45749;51.140;17.184;2023-04-28T03:32:40;100494.56;;;7.44;68.56
59877;BME280;45749;51.140;17.184;2023-04-28T03:35:05;100494.47;;;7.45;68.51
59877;BME280;45749;51.140;17.184;2023-04-28T03:37:31;100498.78;;;7.46;68.63
59877;BME280;45749;51.140;17.184;2023-04-28T03:39:56;100488.53;;;7.42;68.50
59877;BME280;45749;51.140;17.184;2023-04-28T03:42:22;100498.03;;;7.44;68.63
59877;BME280;45749;51.140;17.184;2023-04-28T03:44:47;100493.63;;;7.45;68.42
59877;BME280;45749;51.140;17.184;2023-04-28T03:47:13;100490.91;;;7.46;68.63
59877;BME280;45749;51.140;17.184;2023-04-28T03:49:38;100499.72;;;7.45;68.49
59877;BME280;45749;51.140;17.184;2023-04-28T03:52:03;100498.22;;;7.41;68.57
59877;BME280;45749;51.140;17.184;2023-04-28T03:54:29;100497.72;;;7.35;68.71
59877;BME280;45749;51.140;17.184;2023-04-28T03:56:55;100498.13;;;7.27;68.74
59877;BME280;45749;51.140;17.184;2023-04-28T03:59:20;100494.75;;;7.25;69.12
59877;BME280;45749;51.140;17.184;2023-04-28T04:01:46;100490.00;;;7.32;69.03
59877;BME280;45749;51.140;17.184;2023-04-28T04:04:11;100500.16;;;7.38;68.76
59877;BME280;45749;51.140;17.184;2023-04-28T04:06:37;100499.13;;;7.40;68.92
59877;BME280;45749;51.140;17.184;2023-04-28T04:09:02;100493.88;;;7.40;68.85
59877;BME280;45749;51.140;17.184;2023-04-28T04:11:28;100501.69;;;7.42;68.76
59877;BME280;45749;51.140;17.184;2023-04-28T04:13:53;100487.44;;;7.46;68.75
59877;BME280;45749;51.140;17.184;2023-04-28T04:16:18;100494.97;;;7.52;68.90
59877;BME280;45749;51.140;17.184;2023-04-28T04:18:44;100485.13;;;7.56;68.64
59877;BME280;45749;51.140;17.184;2023-04-28T04:21:09;100487.75;;;7.56;68.84
59877;BME280;45749;51.140;17.184;2023-04-28T04:23:35;100478.84;;;7.58;68.65
59877;BME280;45749;51.140;17.184;2023-04-28T04:26:00;100484.78;;;7.62;68.78
59877;BME280;45749;51.140;17.184;2023-04-28T04:28:26;100481.03;;;7.66;68.81
59877;BME280;45749;51.140;17.184;2023-04-28T04:30:51;100486.38;;;7.64;68.69
59877;BME280;45749;51.140;17.184;2023-04-28T04:33:17;100479.81;;;7.57;68.40
59877;BME280;45749;51.140;17.184;2023-04-28T04:35:42;100481.75;;;7.54;68.72
59877;BME280;45749;51.140;17.184;2023-04-28T04:38:08;100479.31;;;7.50;68.82
59877;BME280;45749;51.140;17.184;2023-04-28T04:40:34;100489.88;;;7.49;68.41
59877;BME280;45749;51.140;17.184;2023-04-28T04:43:00;100485.66;;;7.46;68.61
59877;BME280;45749;51.140;17.184;2023-04-28T04:45:25;100484.97;;;7.43;68.68
59877;BME280;45749;51.140;17.184;2023-04-28T04:47:51;100490.91;;;7.46;69.23
59877;BME280;45749;51.140;17.184;2023-04-28T04:50:17;100481.16;;;7.48;69.29
59877;BME280;45749;51.140;17.184;2023-04-28T04:52:43;100490.81;;;7.48;68.96
59877;BME280;45749;51.140;17.184;2023-04-28T04:55:09;100481.63;;;7.41;68.58
59877;BME280;45749;51.140;17.184;2023-04-28T04:57:35;100472.31;;;7.35;68.44
59877;BME280;45749;51.140;17.184;2023-04-28T05:00:01;100483.06;;;7.31;68.31
59877;BME280;45749;51.140;17.184;2023-04-28T05:02:27;100478.06;;;7.26;68.44
59877;BME280;45749;51.140;17.184;2023-04-28T05:04:52;100487.81;;;7.24;68.44
59877;BME280;45749;51.140;17.184;2023-04-28T05:07:18;100479.34;;;7.19;68.62
59877;BME280;45749;51.140;17.184;2023-04-28T05:09:43;100478.16;;;7.24;69.18
59877;BME280;45749;51.140;17.184;2023-04-28T05:12:08;100476.44;;;7.23;68.65
59877;BME280;45749;51.140;17.184;2023-04-28T05:14:34;100477.31;;;7.24;69.05
59877;BME280;45749;51.140;17.184;2023-04-28T05:16:59;100471.38;;;7.20;68.79
59877;BME280;45749;51.140;17.184;2023-04-28T05:19:25;100475.25;;;7.29;69.42
59877;BME280;45749;51.140;17.184;2023-04-28T05:21:50;100477.63;;;7.34;69.25
59877;BME280;45749;51.140;17.184;2023-04-28T05:24:20;100478.38;;;7.36;69.03
59877;BME280;45749;51.140;17.184;2023-04-28T05:26:48;100476.59;;;7.36;68.99
59877;BME280;45749;51.140;17.184;2023-04-28T05:29:14;100473.31;;;7.33;69.03
59877;BME280;45749;51.140;17.184;2023-04-28T05:31:39;100483.38;;;7.40;69.30
59877;BME280;45749;51.140;17.184;2023-04-28T05:34:05;100476.84;;;7.47;69.08
59877;BME280;45749;51.140;17.184;2023-04-28T05:36:30;100475.47;;;7.56;69.35
59877;BME280;45749;51.140;17.184;2023-04-28T05:38:56;100478.94;;;7.57;68.91
59877;BME280;45749;51.140;17.184;2023-04-28T05:41:22;100476.13;;;7.60;69.53
59877;BME280;45749;51.140;17.184;2023-04-28T05:43:47;100478.75;;;7.60;68.88
59877;BME280;45749;51.140;17.184;2023-04-28T05:46:15;100471.25;;;7.54;68.93
59877;BME280;45749;51.140;17.184;2023-04-28T05:48:41;100477.91;;;7.59;68.68
59877;BME280;45749;51.140;17.184;2023-04-28T05:51:06;100458.03;;;7.55;68.92
59877;BME280;45749;51.140;17.184;2023-04-28T05:53:32;100473.75;;;7.71;69.23
59877;BME280;45749;51.140;17.184;2023-04-28T05:55:57;100467.38;;;7.75;69.11
59877;BME280;45749;51.140;17.184;2023-04-28T05:58:22;100464.75;;;7.75;68.47
59877;BME280;45749;51.140;17.184;2023-04-28T06:00:48;100463.72;;;7.78;68.97
59877;BME280;45749;51.140;17.184;2023-04-28T06:03:13;100461.94;;;7.78;68.41
59877;BME280;45749;51.140;17.184;2023-04-28T06:05:43;100463.63;;;7.79;68.63
59877;BME280;45749;51.140;17.184;2023-04-28T06:08:08;100462.53;;;7.83;68.99
59877;BME280;45749;51.140;17.184;2023-04-28T06:10:34;100465.81;;;7.87;68.40
59877;BME280;45749;51.140;17.184;2023-04-28T06:12:59;100454.19;;;7.91;69.30
59877;BME280;45749;51.140;17.184;2023-04-28T06:15:25;100453.06;;;7.95;68.49
59877;BME280;45749;51.140;17.184;2023-04-28T06:17:52;100456.34;;;7.98;68.30
59877;BME280;45749;51.140;17.184;2023-04-28T06:20:18;100458.97;;;7.98;68.91
59877;BME280;45749;51.140;17.184;2023-04-28T06:22:44;100443.78;;;8.04;69.03
59877;BME280;45749;51.140;17.184;2023-04-28T06:25:10;100450.91;;;8.16;69.20
59877;BME280;45749;51.140;17.184;2023-04-28T06:27:35;100449.34;;;8.28;69.56
59877;BME280;45749;51.140;17.184;2023-04-28T06:30:02;100440.22;;;8.33;68.53
59877;BME280;45749;51.140;17.184;2023-04-28T06:32:27;100433.75;;;8.39;69.02
59877;BME280;45749;51.140;17.184;2023-04-28T06:34:53;100438.00;;;8.41;67.84
59877;BME280;45749;51.140;17.184;2023-04-28T06:37:19;100442.56;;;8.52;68.76
59877;BME280;45749;51.140;17.184;2023-04-28T06:39:44;100439.38;;;8.61;68.39
59877;BME280;45749;51.140;17.184;2023-04-28T06:42:09;100445.88;;;8.70;68.88
59877;BME280;45749;51.140;17.184;2023-04-28T06:44:35;100439.06;;;8.80;68.66
59877;BME280;45749;51.140;17.184;2023-04-28T06:47:00;100438.13;;;8.96;68.02
59877;BME280;45749;51.140;17.184;2023-04-28T06:49:26;100443.72;;;9.04;67.60
59877;BME280;45749;51.140;17.184;2023-04-28T06:51:51;100436.81;;;9.15;68.72
59877;BME280;45749;51.140;17.184;2023-04-28T06:54:17;100434.88;;;9.32;67.67
59877;BME280;45749;51.140;17.184;2023-04-28T06:56:43;100433.41;;;9.40;68.06
59877;BME280;45749;51.140;17.184;2023-04-28T06:59:08;100435.16;;;9.54;67.68
59877;BME280;45749;51.140;17.184;2023-04-28T07:01:34;100432.09;;;9.60;67.58
59877;BME280;45749;51.140;17.184;2023-04-28T07:03:59;100427.16;;;9.69;68.28
59877;BME280;45749;51.140;17.184;2023-04-28T07:06:25;100436.13;;;9.79;66.62
59877;BME280;45749;51.140;17.184;2023-04-28T07:08:52;100431.41;;;9.84;67.12
59877;BME280;45749;51.140;17.184;2023-04-28T07:11:17;100420.84;;;9.97;67.04
59877;BME280;45749;51.140;17.184;2023-04-28T07:13:42;100411.38;;;10.07;67.32
59877;BME280;45749;51.140;17.184;2023-04-28T07:16:10;100416.63;;;10.20;66.90
59877;BME280;45749;51.140;17.184;2023-04-28T07:18:35;100409.16;;;10.26;65.75
59877;BME280;45749;51.140;17.184;2023-04-28T07:21:01;100400.81;;;10.32;66.45
59877;BME280;45749;51.140;17.184;2023-04-28T07:23:26;100405.25;;;10.45;66.33
59877;BME280;45749;51.140;17.184;2023-04-28T07:25:52;100397.41;;;10.56;65.32
59877;BME280;45749;51.140;17.184;2023-04-28T07:28:17;100401.63;;;10.59;65.34
59877;BME280;45749;51.140;17.184;2023-04-28T07:30:43;100393.38;;;10.63;65.06
59877;BME280;45749;51.140;17.184;2023-04-28T07:33:08;100393.44;;;10.74;65.20
59877;BME280;45749;51.140;17.184;2023-04-28T07:35:33;100390.03;;;10.85;64.39
59877;BME280;45749;51.140;17.184;2023-04-28T07:37:59;100394.19;;;11.00;63.82
59877;BME280;45749;51.140;17.184;2023-04-28T07:40:24;100390.53;;;11.14;63.44
59877;BME280;45749;51.140;17.184;2023-04-28T07:42:50;100383.28;;;11.29;63.86
59877;BME280;45749;51.140;17.184;2023-04-28T07:45:16;100388.25;;;11.45;63.43
59877;BME280;45749;51.140;17.184;2023-04-28T07:47:41;100379.91;;;11.62;63.51
59877;BME280;45749;51.140;17.184;2023-04-28T07:50:07;100379.91;;;11.73;62.71
59877;BME280;45749;51.140;17.184;2023-04-28T07:52:33;100384.59;;;11.81;62.51
59877;BME280;45749;51.140;17.184;2023-04-28T07:54:59;100381.19;;;11.92;62.67
59877;BME280;45749;51.140;17.184;2023-04-28T07:57:25;100373.63;;;11.99;63.34
59877;BME280;45749;51.140;17.184;2023-04-28T07:59:51;100375.78;;;12.16;62.74
59877;BME280;45749;51.140;17.184;2023-04-28T08:02:16;100364.94;;;12.30;63.00
59877;BME280;45749;51.140;17.184;2023-04-28T08:04:43;100371.44;;;12.49;62.37
59877;BME280;45749;51.140;17.184;2023-04-28T08:07:09;100363.59;;;12.58;61.17
59877;BME280;45749;51.140;17.184;2023-04-28T08:09:34;100372.84;;;12.64;59.58
59877;BME280;45749;51.140;17.184;2023-04-28T08:12:00;100360.91;;;12.70;59.07
59877;BME280;45749;51.140;17.184;2023-04-28T08:14:26;100366.78;;;12.84;58.68
59877;BME280;45749;51.140;17.184;2023-04-28T08:16:52;100360.75;;;12.94;59.32
59877;BME280;45749;51.140;17.184;2023-04-28T08:19:18;100367.28;;;13.10;58.70
59877;BME280;45749;51.140;17.184;2023-04-28T08:21:43;100359.78;;;13.27;57.35
59877;BME280;45749;51.140;17.184;2023-04-28T08:24:09;100361.69;;;13.36;55.86
59877;BME280;45749;51.140;17.184;2023-04-28T08:26:36;100354.50;;;13.48;56.20
59877;BME280;45749;51.140;17.184;2023-04-28T08:29:02;100347.06;;;13.63;55.23
59877;BME280;45749;51.140;17.184;2023-04-28T08:31:27;100354.94;;;13.74;54.41
59877;BME280;45749;51.140;17.184;2023-04-28T08:33:52;100348.59;;;13.86;55.31
59877;BME280;45749;51.140;17.184;2023-04-28T08:36:18;100342.81;;;14.02;54.14
59877;BME280;45749;51.140;17.184;2023-04-28T08:38:44;100342.84;;;14.12;53.75
59877;BME280;45749;51.140;17.184;2023-04-28T08:41:12;100331.09;;;14.14;53.97
59877;BME280;45749;51.140;17.184;2023-04-28T08:43:39;100327.91;;;14.20;53.50
59877;BME280;45749;51.140;17.184;2023-04-28T08:46:07;100328.94;;;14.29;54.31
59877;BME280;45749;51.140;17.184;2023-04-28T08:48:39;100322.97;;;14.46;52.87
59877;BME280;45749;51.140;17.184;2023-04-28T08:51:06;100333.66;;;14.66;53.07
59877;BME280;45749;51.140;17.184;2023-04-28T08:53:37;100316.19;;;14.83;52.34
59877;BME280;45749;51.140;17.184;2023-04-28T08:56:05;100312.00;;;14.99;53.02
59877;BME280;45749;51.140;17.184;2023-04-28T08:58:32;100315.63;;;15.18;49.92
59877;BME280;45749;51.140;17.184;2023-04-28T09:00:59;100309.22;;;15.20;48.22
59877;BME280;45749;51.140;17.184;2023-04-28T09:03:26;100306.13;;;15.25;48.54
59877;BME280;45749;51.140;17.184;2023-04-28T09:05:52;100310.56;;;15.44;48.99
59877;BME280;45749;51.140;17.184;2023-04-28T09:08:18;100305.50;;;15.60;49.89
59877;BME280;45749;51.140;17.184;2023-04-28T09:10:43;100304.03;;;15.85;50.47
59877;BME280;45749;51.140;17.184;2023-04-28T09:13:08;100295.72;;;15.98;46.26
59877;BME280;45749;51.140;17.184;2023-04-28T09:15:38;100298.88;;;16.11;49.28
59877;BME280;45749;51.140;17.184;2023-04-28T09:18:07;100296.50;;;16.36;48.67
59877;BME280;45749;51.140;17.184;2023-04-28T09:20:34;100295.69;;;16.53;47.45
59877;BME280;45749;51.140;17.184;2023-04-28T09:26:03;100274.38;;;16.53;45.06
59877;BME280;45749;51.140;17.184;2023-04-28T09:28:30;100285.09;;;16.61;45.16
59877;BME280;45749;51.140;17.184;2023-04-28T09:30:55;100274.69;;;16.68;45.89
59877;BME280;45749;51.140;17.184;2023-04-28T09:33:21;100275.03;;;16.83;46.04
59877;BME280;45749;51.140;17.184;2023-04-28T09:35:47;100272.28;;;16.93;45.06
59877;BME280;45749;51.140;17.184;2023-04-28T09:38:14;100280.34;;;17.01;42.99
59877;BME280;45749;51.140;17.184;2023-04-28T09:40:55;100278.53;;;17.01;43.76
59877;BME280;45749;51.140;17.184;2023-04-28T09:43:31;100276.75;;;17.10;43.93
59877;BME280;45749;51.140;17.184;2023-04-28T09:46:01;100259.56;;;17.30;45.52
59877;BME280;45749;51.140;17.184;2023-04-28T09:48:33;100245.91;;;17.59;45.35
59877;BME280;45749;51.140;17.184;2023-04-28T09:51:04;100254.84;;;17.76;43.69
59877;BME280;45749;51.140;17.184;2023-04-28T09:53:30;100252.44;;;17.91;44.25
59877;BME280;45749;51.140;17.184;2023-04-28T09:55:58;100251.28;;;17.94;40.97
59877;BME280;45749;51.140;17.184;2023-04-28T09:58:25;100243.22;;;17.86;42.07
59877;BME280;45749;51.140;17.184;2023-04-28T10:00:58;100244.25;;;17.93;41.76
59877;BME280;45749;51.140;17.184;2023-04-28T10:03:25;100233.44;;;18.02;43.11
59877;BME280;45749;51.140;17.184;2023-04-28T10:05:52;100227.31;;;18.18;41.87
59877;BME280;45749;51.140;17.184;2023-04-28T10:08:19;100221.97;;;18.18;41.63
59877;BME280;45749;51.140;17.184;2023-04-28T10:10:47;100227.69;;;18.32;43.52
59877;BME280;45749;51.140;17.184;2023-04-28T10:13:16;100221.88;;;18.44;41.82
59877;BME280;45749;51.140;17.184;2023-04-28T10:15:43;100207.34;;;18.47;41.63
59877;BME280;45749;51.140;17.184;2023-04-28T10:18:10;100198.84;;;18.51;42.38
59877;BME280;45749;51.140;17.184;2023-04-28T10:20:36;100208.22;;;18.72;41.73
59877;BME280;45749;51.140;17.184;2023-04-28T10:25:58;100208.22;;;18.88;41.33
59877;BME280;45749;51.140;17.184;2023-04-28T10:28:25;100191.34;;;18.88;41.47
59877;BME280;45749;51.140;17.184;2023-04-28T10:31:11;100196.69;;;18.96;38.84
59877;BME280;45749;51.140;17.184;2023-04-28T10:33:37;100197.38;;;18.90;40.55
59877;BME280;45749;51.140;17.184;2023-04-28T10:36:03;100192.19;;;18.96;41.11
59877;BME280;45749;51.140;17.184;2023-04-28T10:38:29;100190.50;;;19.04;41.39
59877;BME280;45749;51.140;17.184;2023-04-28T10:40:55;100186.44;;;19.24;41.52
59877;BME280;45749;51.140;17.184;2023-04-28T10:43:32;100167.19;;;19.37;40.78
59877;BME280;45749;51.140;17.184;2023-04-28T10:56:24;100161.94;;;19.68;39.47
59877;BME280;45749;51.140;17.184;2023-04-28T11:01:30;100165.50;;;19.91;39.82
59877;BME280;45749;51.140;17.184;2023-04-28T11:04:01;100170.78;;;20.00;38.93
59877;BME280;45749;51.140;17.184;2023-04-28T11:06:37;100158.28;;;19.92;39.62
59877;BME280;45749;51.140;17.184;2023-04-28T11:14:36;100170.78;;;20.00;38.42
59877;BME280;45749;51.140;17.184;2023-04-28T11:17:04;100166.25;;;20.00;37.87
59877;BME280;45749;51.140;17.184;2023-04-28T11:19:34;100154.91;;;19.98;38.50
59877;BME280;45749;51.140;17.184;2023-04-28T11:22:03;100149.22;;;19.93;36.75
59877;BME280;45749;51.140;17.184;2023-04-28T11:24:34;100141.59;;;19.82;38.88
59877;BME280;45749;51.140;17.184;2023-04-28T11:26:59;100152.22;;;19.98;36.73
59877;BME280;45749;51.140;17.184;2023-04-28T11:31:59;100141.19;;;19.93;37.96
59877;BME280;45749;51.140;17.184;2023-04-28T11:34:25;100142.81;;;20.02;38.22
59877;BME280;45749;51.140;17.184;2023-04-28T11:36:50;100142.28;;;20.07;36.53
59877;BME280;45749;51.140;17.184;2023-04-28T11:39:27;100125.44;;;19.98;36.67
59877;BME280;45749;51.140;17.184;2023-04-28T11:41:53;100125.50;;;20.13;39.49
59877;BME280;45749;51.140;17.184;2023-04-28T11:44:21;100115.72;;;20.20;37.11
59877;BME280;45749;51.140;17.184;2023-04-28T11:46:54;100128.72;;;20.31;36.51
59877;BME280;45749;51.140;17.184;2023-04-28T11:49:44;100115.38;;;20.23;37.13
59877;BME280;45749;51.140;17.184;2023-04-28T11:52:10;100114.31;;;20.32;37.41
59877;BME280;45749;51.140;17.184;2023-04-28T11:54:40;100096.75;;;20.30;36.07
59877;BME280;45749;51.140;17.184;2023-04-28T11:57:20;100107.69;;;20.43;36.88
59877;BME280;45749;51.140;17.184;2023-04-28T11:59:46;100108.34;;;20.45;36.75
59877;BME280;45749;51.140;17.184;2023-04-28T12:02:11;100111.69;;;20.47;35.72
59877;BME280;45749;51.140;17.184;2023-04-28T12:04:39;100101.13;;;20.46;36.15
59877;BME280;45749;51.140;17.184;2023-04-28T12:09:40;100102.03;;;20.38;35.52
59877;BME280;45749;51.140;17.184;2023-04-28T12:12:08;100107.41;;;20.38;36.10
59877;BME280;45749;51.140;17.184;2023-04-28T12:14:53;100112.09;;;20.36;35.97
59877;BME280;45749;51.140;17.184;2023-04-28T12:17:35;100091.38;;;20.30;36.22
59877;BME280;45749;51.140;17.184;2023-04-28T12:20:03;100097.06;;;20.50;37.89
59877;BME280;45749;51.140;17.184;2023-04-28T12:22:29;100109.72;;;20.64;37.53
59877;BME280;45749;51.140;17.184;2023-04-28T12:25:11;100095.56;;;20.55;35.68
59877;BME280;45749;51.140;17.184;2023-04-28T12:27:38;100095.09;;;20.52;36.03
59877;BME280;45749;51.140;17.184;2023-04-28T12:32:45;100080.28;;;20.56;36.24
59877;BME280;45749;51.140;17.184;2023-04-28T12:35:11;100068.28;;;20.52;35.78
59877;BME280;45749;51.140;17.184;2023-04-28T12:37:37;100084.19;;;20.53;35.83
59877;BME280;45749;51.140;17.184;2023-04-28T12:40:04;100072.00;;;20.51;36.89
59877;BME280;45749;51.140;17.184;2023-04-28T12:42:30;100061.97;;;20.45;36.72
59877;BME280;45749;51.140;17.184;2023-04-28T12:44:56;100066.03;;;20.41;34.40
59877;BME280;45749;51.140;17.184;2023-04-28T12:47:21;100069.22;;;20.36;35.74
59877;BME280;45749;51.140;17.184;2023-04-28T12:49:47;100068.97;;;20.31;35.70
59877;BME280;45749;51.140;17.184;2023-04-28T12:52:16;100068.28;;;20.29;35.85
59877;BME280;45749;51.140;17.184;2023-04-28T12:54:41;100067.00;;;20.25;35.67
59877;BME280;45749;51.140;17.184;2023-04-28T12:57:11;100060.03;;;20.15;35.24
59877;BME280;45749;51.140;17.184;2023-04-28T12:59:38;100057.44;;;20.07;35.04
59877;BME280;45749;51.140;17.184;2023-04-28T13:02:04;100056.28;;;20.02;35.04
59877;BME280;45749;51.140;17.184;2023-04-28T13:04:30;100052.13;;;19.99;35.13
59877;BME280;45749;51.140;17.184;2023-04-28T13:06:56;100047.44;;;20.01;35.45
59877;BME280;45749;51.140;17.184;2023-04-28T13:09:23;100042.00;;;20.09;35.58
59877;BME280;45749;51.140;17.184;2023-04-28T13:11:49;100036.94;;;20.14;35.84
59877;BME280;45749;51.140;17.184;2023-04-28T13:14:14;100045.09;;;20.21;35.34